Long Branch, TX (75669)

20:16 CST le 22 décembre 2014 (GMT -0600)
Brachfield, TX | Change Station
CLOSE
Current Station
Stations météorologiques personnelles
Location: Long Branch, TX
Altitude: 407 ft
Stations météo à proximité

Alt. 407 ft 32.05 °N, 94.64 °W | Updated 11 minutes ago

Nuageux
Nuageux
53.8 ° F
Paraît 53.8 ° F
N
1.1
Vent Variable Vent de NNO

Aujourd'hui
Haut(e) -- | Bas -- ° F
--% Risque de précip.
Hier
Haut(e) -- | Bas -- ° F
Precip. -- pouce
7:15 AM 5:18 PM
Nouvelle lune, 1% visible
Pression 29.65 pouce
Visibilité 10.0 Miles terrestres
Nuages Ciel dégagé
Point de rosée 53 ° F
Humidité 98%
Précipitations 0.00 pouce
Profondeur de la couche neigeuse Non disponible.
UV 0 sur 12
Pollen 3.50 sur 12
Qualité de l'air Non disponible.
Flu Activity Non disponible.
METAR KRFI 230155Z AUTO 00000KT 10SM CLR 13/11 A2965 RMK AO2 T01250107

More Conditions Fewer Conditions

Pression 29.65 pouce
Visibilité 10.0 Miles terrestres
Nuages Ciel dégagé
Point de rosée 53 ° F
Humidité 98%
Précipitations 0.00 pouce
Profondeur de la couche neigeuse Non disponible.
UV 0 sur 12
Pollen 3.50 sur 12
Qualité de l'air Non disponible.
Flu Activity Non disponible.
METAR KRFI 230155Z AUTO 00000KT 10SM CLR 13/11 A2965 RMK AO2 T01250107

More Conditions Fewer Conditions

10-Day Weather Forecast

Almanac

Astronomie

Dec. 22, 2014 Lever Coucher
Temps réel
Crépuscule civil
Crépuscule nautique
Crépuscule astronomique
Lune
Durée de lumière visible
Longueur du jour
Tomorrow will be .
, % of the Moon is Illuminated

Extrêmes aujourd'hui

State Highs State Lows

Community

WunderPhotos

Upload Photos

1,779,761 Photos téléchargées !

WunderBlogs® & News

Nearby

Qualité de l'air

  Qualité de l'air Indice de la qualité de l'air Polluant
Not available.

Épaisseur de neige

Station Depth Altitude

Activité sismique

Ville Distance Mag. Time & Date
Minimum magnitude displayed is 2.5.

Températures des eaux côtières

Lieu Température

Stations météo à proximité